Time;durP1;ratioP1;P1;durP2;ratioP2;P2;SDS_P1;SDS_P2;PMS_P1;PMS_P2;Temp;Humidity;BMP_temperature;BMP_pressure;BME280_temperature;BME280_humidity;BME280_pressure;Samples;Min_cycle;Max_cycle;Signal;HPM_P1;HPM_P2
2022/03/13 00:00:42;;;;;;;;;;;9.30;99.90;;;;;;4908136;29;19978;-79
2022/03/13 00:03:12;;;;;;;;;;;9.20;99.90;;;;;;4917071;29;19911;-79
2022/03/13 00:05:39;;;;;;;;;;;9.30;99.90;;;;;;4918813;29;20399;-80
2022/03/13 00:08:16;;;;;;;;;;;9.20;99.90;;;;;;4903998;29;20072;-80
2022/03/13 00:10:43;;;;;;;;;;;9.30;99.90;;;;;;4910641;29;19911;-79
2022/03/13 00:13:15;;;;;;;;;;;9.20;99.90;;;;;;4917452;29;19915;-80
2022/03/13 00:15:42;;;;;;;;;;;9.20;99.90;;;;;;4918524;29;19911;-79
2022/03/13 00:18:09;;;;;;;;;;;9.20;99.90;;;;;;4918881;29;19915;-79
2022/03/13 00:20:35;;;;;;;;;;;9.30;99.90;;;;;;4918614;29;19979;-79
2022/03/13 00:23:01;;;;;;;;;;;9.30;99.90;;;;;;4906933;29;19991;-80
2022/03/13 00:25:27;;;;;;;;;;;9.30;99.90;;;;;;4918028;29;19922;-80
2022/03/13 00:27:53;;;;;;;;;;;9.40;99.90;;;;;;4918905;29;19943;-79
2022/03/13 00:30:18;;;;;;;;;;;9.30;99.90;;;;;;4918381;29;19911;-79
2022/03/13 00:32:44;;;;;;;;;;;9.30;99.90;;;;;;4918423;29;19915;-79
2022/03/13 00:35:11;;;;;;;;;;;9.30;99.90;;;;;;4918335;29;19915;-79
2022/03/13 00:37:36;;;;;;;;;;;9.30;99.90;;;;;;4918803;29;19915;-80
2022/03/13 00:40:02;;;;;;;;;;;9.20;99.90;;;;;;4918522;29;19911;-79
2022/03/13 00:42:28;;;;;;;;;;;9.30;99.90;;;;;;4918408;29;19963;-80
2022/03/13 00:44:54;;;;;;;;;;;9.30;99.90;;;;;;4918091;29;19915;-79
2022/03/13 00:47:20;;;;;;;;;;;9.40;99.90;;;;;;4918275;29;20550;-79
2022/03/13 00:49:46;;;;;;;;;;;9.40;99.90;;;;;;4915930;29;19963;-80
2022/03/13 00:52:12;;;;;;;;;;;9.40;99.90;;;;;;4918127;29;19961;-80
2022/03/13 00:54:37;;;;;;;;;;;9.40;99.90;;;;;;4917991;29;20395;-80
2022/03/13 00:57:03;;;;;;;;;;;9.40;99.90;;;;;;4901100;29;19971;-80
2022/03/13 00:59:29;;;;;;;;;;;9.40;99.90;;;;;;4917865;29;20279;-80
2022/03/13 01:01:54;;;;;;;;;;;9.40;99.90;;;;;;4918349;29;19918;-80
2022/03/13 01:04:20;;;;;;;;;;;9.50;99.90;;;;;;4917109;29;19911;-80
2022/03/13 01:06:46;;;;;;;;;;;9.40;99.90;;;;;;4917922;29;19915;-80
2022/03/13 01:09:11;;;;;;;;;;;9.50;99.90;;;;;;4917846;29;19918;-80
2022/03/13 01:11:37;;;;;;;;;;;9.50;99.90;;;;;;4917296;29;19915;-80
2022/03/13 01:14:03;;;;;;;;;;;9.40;99.90;;;;;;4900405;29;19915;-79
2022/03/13 01:16:39;;;;;;;;;;;9.50;99.90;;;;;;4917427;29;19915;-79
2022/03/13 01:19:05;;;;;;;;;;;9.50;99.90;;;;;;4916759;29;19919;-80
2022/03/13 01:21:32;;;;;;;;;;;9.50;99.90;;;;;;4917911;29;19915;-80
2022/03/13 01:23:58;;;;;;;;;;;9.50;99.90;;;;;;4917511;29;20010;-79
2022/03/13 01:26:23;;;;;;;;;;;9.40;99.90;;;;;;4917280;29;20001;-80
2022/03/13 01:28:50;;;;;;;;;;;9.50;99.90;;;;;;4917154;29;19917;-80
2022/03/13 01:31:19;;;;;;;;;;;9.50;99.90;;;;;;4900249;29;19919;-80
2022/03/13 01:33:45;;;;;;;;;;;9.60;99.90;;;;;;4877792;29;19990;-80
2022/03/13 01:36:11;;;;;;;;;;;9.60;99.90;;;;;;4879572;29;19939;-79
2022/03/13 01:38:37;;;;;;;;;;;9.60;99.90;;;;;;4879697;29;20401;-80
2022/03/13 01:41:03;;;;;;;;;;;9.70;99.90;;;;;;4879662;29;19937;-79
2022/03/13 01:43:31;;;;;;;;;;;9.70;99.90;;;;;;4879452;29;19911;-80
2022/03/13 01:45:59;;;;;;;;;;;9.70;99.90;;;;;;4879861;29;19912;-80
2022/03/13 01:48:26;;;;;;;;;;;9.70;99.90;;;;;;4876810;29;20006;-79
2022/03/13 01:50:52;;;;;;;;;;;9.70;99.90;;;;;;4892291;29;20444;-80
2022/03/13 01:53:18;;;;;;;;;;;9.70;99.90;;;;;;4898272;29;19919;-79
2022/03/13 01:55:44;;;;;;;;;;;9.80;99.90;;;;;;4898107;29;19919;-79
2022/03/13 01:58:09;;;;;;;;;;;9.80;99.90;;;;;;4898078;29;19912;-79
2022/03/13 02:00:35;;;;;;;;;;;9.80;99.90;;;;;;4898057;29;19912;-79
2022/03/13 02:03:01;;;;;;;;;;;9.80;99.90;;;;;;4881574;29;19915;-80
2022/03/13 02:05:30;;;;;;;;;;;9.80;99.90;;;;;;4899637;29;19911;-79
2022/03/13 02:07:56;;;;;;;;;;;9.90;99.90;;;;;;4917101;29;19918;-80
2022/03/13 02:10:21;;;;;;;;;;;9.90;99.90;;;;;;4916983;29;20342;-79
2022/03/13 02:12:48;;;;;;;;;;;9.90;99.90;;;;;;4916840;29;20410;-80
2022/03/13 02:15:13;;;;;;;;;;;9.90;99.90;;;;;;4917065;29;19951;-79
2022/03/13 02:17:39;;;;;;;;;;;9.90;99.90;;;;;;4898693;29;19943;-79
2022/03/13 02:20:11;;;;;;;;;;;9.90;99.90;;;;;;4879262;29;19919;-80
2022/03/13 02:22:37;;;;;;;;;;;9.90;99.90;;;;;;4879315;29;20004;-80
2022/03/13 02:25:21;;;;;;;;;;;9.90;99.90;;;;;;5111136;27;20302;-80
2022/03/13 02:27:46;;;;;;;;;;;9.90;99.90;;;;;;5110614;28;19912;-80
2022/03/13 02:30:12;;;;;;;;;;;9.90;99.90;;;;;;5110681;28;19916;-80
2022/03/13 02:32:37;;;;;;;;;;;9.90;99.90;;;;;;5109257;28;20287;-80
2022/03/13 02:35:03;;;;;;;;;;;9.90;99.90;;;;;;5111002;28;19908;-80
2022/03/13 02:37:29;;;;;;;;;;;9.90;99.90;;;;;;5110598;28;19994;-80
2022/03/13 02:39:54;;;;;;;;;;;9.80;99.90;;;;;;5110788;28;20006;-80
2022/03/13 02:42:20;;;;;;;;;;;9.80;99.90;;;;;;5143282;27;20371;-80
2022/03/13 02:44:45;;;;;;;;;;;9.90;99.90;;;;;;5111656;28;19937;-80
2022/03/13 02:47:11;;;;;;;;;;;9.90;99.90;;;;;;5121288;28;19979;-80
2022/03/13 02:49:36;;;;;;;;;;;9.80;99.90;;;;;;5104065;28;20298;-80
2022/03/13 02:52:04;;;;;;;;;;;9.90;99.90;;;;;;5090308;28;20380;-80
2022/03/13 02:54:29;;;;;;;;;;;9.80;99.90;;;;;;5089222;28;19909;-80
2022/03/13 02:56:55;;;;;;;;;;;9.90;99.90;;;;;;5099650;28;19931;-80
2022/03/13 02:59:21;;;;;;;;;;;9.90;99.90;;;;;;5110204;28;19912;-80
2022/03/13 03:01:47;;;;;;;;;;;9.90;99.90;;;;;;5110477;28;19915;-80
2022/03/13 03:04:13;;;;;;;;;;;10.00;99.90;;;;;;5110286;28;19919;-80
2022/03/13 03:06:39;;;;;;;;;;;10.00;99.90;;;;;;5108940;28;19908;-80
2022/03/13 03:09:05;;;;;;;;;;;10.00;99.90;;;;;;5109394;28;20394;-80
2022/03/13 03:11:32;;;;;;;;;;;10.00;99.90;;;;;;5101433;28;19912;-80
2022/03/13 03:13:59;;;;;;;;;;;10.00;99.90;;;;;;5089653;28;20376;-80
2022/03/13 03:16:25;;;;;;;;;;;10.00;99.90;;;;;;5089809;28;20364;-80
2022/03/13 03:18:50;;;;;;;;;;;10.10;99.90;;;;;;5089639;28;19915;-80
2022/03/13 03:21:16;;;;;;;;;;;10.10;99.90;;;;;;5087139;28;19909;-80
2022/03/13 03:23:41;;;;;;;;;;;10.10;99.90;;;;;;5099962;28;19924;-80
2022/03/13 03:26:07;;;;;;;;;;;10.10;99.90;;;;;;5109747;28;19965;-80
2022/03/13 03:28:34;;;;;;;;;;;10.10;99.90;;;;;;5108543;28;19909;-80
2022/03/13 03:31:00;;;;;;;;;;;10.10;99.90;;;;;;5108706;28;20373;-80
2022/03/13 03:33:25;;;;;;;;;;;10.10;99.90;;;;;;5109804;28;19960;-80
2022/03/13 03:35:51;;;;;;;;;;;10.20;99.90;;;;;;5099358;28;19933;-80
2022/03/13 03:38:17;;;;;;;;;;;10.10;99.90;;;;;;5075743;28;19915;-80
2022/03/13 03:40:42;;;;;;;;;;;10.20;99.90;;;;;;5075353;28;19909;-80
2022/03/13 03:43:08;;;;;;;;;;;10.20;99.90;;;;;;5075720;28;19908;-80
2022/03/13 03:45:33;;;;;;;;;;;10.20;99.90;;;;;;5075675;28;19909;-79
2022/03/13 03:47:59;;;;;;;;;;;10.20;99.90;;;;;;5075731;28;19914;-80
2022/03/13 03:50:25;;;;;;;;;;;10.20;99.90;;;;;;5075544;28;20003;-80
2022/03/13 03:52:55;;;;;;;;;;;10.20;99.90;;;;;;5075293;28;19935;-80
2022/03/13 03:55:20;;;;;;;;;;;10.20;99.90;;;;;;5075374;28;19913;-79
2022/03/13 03:57:46;;;;;;;;;;;10.20;99.90;;;;;;5075617;28;19917;-80
2022/03/13 04:00:12;;;;;;;;;;;10.20;99.90;;;;;;5072361;28;19952;-78
2022/03/13 04:02:38;;;;;;;;;;;10.20;99.90;;;;;;5055358;28;20266;-80
2022/03/13 04:05:04;;;;;;;;;;;10.20;99.90;;;;;;5055266;28;19920;-80
2022/03/13 04:07:30;;;;;;;;;;;10.20;99.90;;;;;;5073791;28;19912;-80
2022/03/13 04:09:56;;;;;;;;;;;10.10;99.90;;;;;;5074808;28;19912;-81
2022/03/13 04:12:21;;;;;;;;;;;10.20;99.90;;;;;;5075589;28;19909;-80
2022/03/13 04:14:47;;;;;;;;;;;10.10;99.90;;;;;;5075219;28;19909;-80
2022/03/13 04:17:13;;;;;;;;;;;10.10;99.90;;;;;;5075379;28;19915;-80
2022/03/13 04:19:38;;;;;;;;;;;10.10;99.90;;;;;;5074632;28;19913;-80
2022/03/13 04:22:04;;;;;;;;;;;10.10;99.90;;;;;;5074901;28;19909;-79
2022/03/13 04:24:32;;;;;;;;;;;10.00;99.90;;;;;;5074345;28;19920;-80
2022/03/13 04:26:58;;;;;;;;;;;10.10;99.90;;;;;;5074886;28;20003;-80
2022/03/13 04:29:23;;;;;;;;;;;10.00;99.90;;;;;;5074952;28;20005;-80
2022/03/13 04:31:50;;;;;;;;;;;10.00;99.90;;;;;;5074631;28;19908;-80
2022/03/13 04:34:16;;;;;;;;;;;10.00;99.90;;;;;;5074022;28;19997;-80
2022/03/13 04:36:42;;;;;;;;;;;10.00;99.90;;;;;;5107341;28;20296;-80
2022/03/13 04:39:08;;;;;;;;;;;10.00;99.90;;;;;;5074876;28;19916;-80
2022/03/13 04:41:34;;;;;;;;;;;9.90;99.90;;;;;;5074932;28;19909;-80
2022/03/13 04:44:00;;;;;;;;;;;9.90;99.90;;;;;;5074321;28;20333;-80
2022/03/13 04:46:25;;;;;;;;;;;9.90;99.90;;;;;;5074148;28;19908;-80
2022/03/13 04:48:51;;;;;;;;;;;9.90;99.90;;;;;;5073898;28;19908;-80
2022/03/13 04:51:16;;;;;;;;;;;9.80;99.90;;;;;;5074122;28;19908;-80
2022/03/13 04:53:42;;;;;;;;;;;9.80;99.90;;;;;;5074519;28;19908;-80
2022/03/13 04:56:08;;;;;;;;;;;9.80;99.90;;;;;;5074393;28;19948;-80
2022/03/13 04:58:33;;;;;;;;;;;9.80;99.90;;;;;;5073018;28;19908;-80
2022/03/13 05:00:59;;;;;;;;;;;9.80;99.90;;;;;;5074132;28;19954;-81
2022/03/13 05:03:27;;;;;;;;;;;9.80;99.90;;;;;;5078725;28;19916;-80
2022/03/13 05:05:53;;;;;;;;;;;9.80;99.90;;;;;;5094106;28;20363;-80
2022/03/13 05:08:19;;;;;;;;;;;9.80;99.90;;;;;;5094376;28;19908;-80
2022/03/13 05:10:46;;;;;;;;;;;9.80;99.90;;;;;;5094277;28;19908;-80
2022/03/13 05:13:13;;;;;;;;;;;9.80;99.90;;;;;;5094261;28;19953;-80
2022/03/13 05:15:39;;;;;;;;;;;9.70;99.90;;;;;;5094253;28;19908;-80
2022/03/13 05:18:05;;;;;;;;;;;9.80;99.90;;;;;;5094014;28;19912;-80
2022/03/13 05:20:31;;;;;;;;;;;9.80;99.90;;;;;;5093903;28;19990;-80
2022/03/13 05:22:57;;;;;;;;;;;9.70;99.90;;;;;;5083511;28;19999;-80
2022/03/13 05:25:23;;;;;;;;;;;9.70;99.90;;;;;;5073724;28;19909;-80
2022/03/13 05:27:50;;;;;;;;;;;9.70;99.90;;;;;;5073687;28;19908;-80
2022/03/13 05:30:16;;;;;;;;;;;9.80;99.90;;;;;;5073192;28;19915;-80
2022/03/13 05:32:42;;;;;;;;;;;9.80;99.90;;;;;;5073581;28;20354;-80
2022/03/13 05:35:07;;;;;;;;;;;9.80;99.90;;;;;;5072762;28;19913;-80
2022/03/13 05:37:33;;;;;;;;;;;9.80;99.90;;;;;;5074041;28;19977;-80
2022/03/13 05:39:58;;;;;;;;;;;9.80;99.90;;;;;;5073684;28;19931;-80
2022/03/13 05:42:27;;;;;;;;;;;9.80;99.90;;;;;;5071704;28;19913;-80
2022/03/13 05:44:53;;;;;;;;;;;9.80;99.90;;;;;;5053410;28;20343;-80
2022/03/13 05:47:19;;;;;;;;;;;9.80;99.90;;;;;;5053426;28;19909;-80
2022/03/13 05:49:45;;;;;;;;;;;9.90;99.90;;;;;;5053120;28;19916;-80
2022/03/13 05:52:14;;;;;;;;;;;9.90;99.90;;;;;;5065987;28;19912;-80
2022/03/13 05:54:40;;;;;;;;;;;9.90;99.90;;;;;;5072070;28;20330;-80
2022/03/13 05:57:07;;;;;;;;;;;9.90;99.90;;;;;;5072823;28;19919;-80
2022/03/13 05:59:36;;;;;;;;;;;9.90;99.90;;;;;;5072687;28;20289;-80
2022/03/13 06:02:03;;;;;;;;;;;9.90;99.90;;;;;;5073325;28;20368;-80
2022/03/13 06:04:29;;;;;;;;;;;9.90;99.90;;;;;;5072762;28;19919;-80
2022/03/13 06:06:55;;;;;;;;;;;9.90;99.90;;;;;;5073288;28;19908;-80
2022/03/13 06:09:20;;;;;;;;;;;10.00;99.90;;;;;;5073099;28;19908;-80
2022/03/13 06:11:46;;;;;;;;;;;9.90;99.90;;;;;;5074399;28;20287;-80
2022/03/13 06:14:11;;;;;;;;;;;9.90;99.90;;;;;;5093582;28;19908;-80
2022/03/13 06:16:38;;;;;;;;;;;10.00;99.90;;;;;;5093177;28;19908;-80
2022/03/13 06:19:03;;;;;;;;;;;9.90;99.90;;;;;;5091275;28;19908;-80
2022/03/13 06:21:29;;;;;;;;;;;10.00;99.90;;;;;;5092957;28;19908;-80
2022/03/13 06:23:54;;;;;;;;;;;10.00;99.90;;;;;;5092897;28;19969;-80
2022/03/13 06:26:20;;;;;;;;;;;10.00;99.90;;;;;;5084251;28;19912;-80
2022/03/13 06:28:45;;;;;;;;;;;9.90;99.90;;;;;;5061975;28;19956;-80
2022/03/13 06:31:12;;;;;;;;;;;10.10;99.90;;;;;;5052713;28;19913;-80
2022/03/13 06:33:37;;;;;;;;;;;10.00;99.90;;;;;;5052664;28;19916;-80
2022/03/13 06:36:03;;;;;;;;;;;10.00;99.90;;;;;;5052896;28;19909;-80
2022/03/13 06:38:29;;;;;;;;;;;10.00;99.90;;;;;;5052871;28;19909;-80
2022/03/13 06:40:55;;;;;;;;;;;10.10;99.90;;;;;;5062635;28;19958;-80
2022/03/13 06:43:20;;;;;;;;;;;10.10;99.90;;;;;;5072726;28;19922;-80
2022/03/13 06:45:46;;;;;;;;;;;10.10;99.90;;;;;;5072692;28;19952;-80
2022/03/13 06:48:14;;;;;;;;;;;10.10;99.90;;;;;;5072570;28;19908;-80
2022/03/13 06:50:39;;;;;;;;;;;10.10;99.90;;;;;;5072844;28;19962;-80
2022/03/13 06:53:05;;;;;;;;;;;10.10;99.90;;;;;;5072715;28;19912;-80
2022/03/13 06:55:30;;;;;;;;;;;10.20;99.90;;;;;;5072585;28;19909;-80
2022/03/13 06:57:56;;;;;;;;;;;10.20;99.90;;;;;;5072936;28;20029;-80
2022/03/13 07:00:22;;;;;;;;;;;10.20;99.90;;;;;;5072490;28;19916;-80
2022/03/13 07:02:48;;;;;;;;;;;10.20;99.90;;;;;;5072382;28;20288;-81
2022/03/13 07:05:14;;;;;;;;;;;10.20;99.90;;;;;;5072472;28;20265;-80
2022/03/13 07:07:40;;;;;;;;;;;10.30;99.90;;;;;;5072738;28;19919;-80
2022/03/13 07:10:09;;;;;;;;;;;10.30;99.90;;;;;;5077037;28;19916;-80
2022/03/13 07:12:44;;;;;;;;;;;10.30;99.90;;;;;;5079710;28;19908;-80
2022/03/13 07:15:13;;;;;;;;;;;10.20;99.90;;;;;;5096529;28;19908;-80
2022/03/13 07:17:41;;;;;;;;;;;10.30;99.90;;;;;;5096382;28;20716;-80
2022/03/13 07:20:06;;;;;;;;;;;10.30;99.90;;;;;;5096456;28;19908;-80
2022/03/13 07:22:32;;;;;;;;;;;10.30;99.90;;;;;;5096108;28;19915;-80
2022/03/13 07:24:58;;;;;;;;;;;10.30;99.90;;;;;;5096264;28;19924;-80
2022/03/13 07:27:23;;;;;;;;;;;10.30;99.90;;;;;;5083750;28;19920;-80
2022/03/13 07:29:51;;;;;;;;;;;10.40;99.90;;;;;;5076271;28;19915;-80
2022/03/13 07:32:16;;;;;;;;;;;10.40;99.90;;;;;;5075819;28;20257;-80
2022/03/13 07:34:42;;;;;;;;;;;10.40;99.90;;;;;;5075925;28;19914;-80
2022/03/13 07:37:10;;;;;;;;;;;10.40;99.90;;;;;;5075859;28;19952;-80
2022/03/13 07:39:36;;;;;;;;;;;10.40;99.90;;;;;;5075745;28;19908;-80
2022/03/13 07:42:02;;;;;;;;;;;10.50;99.90;;;;;;5075957;28;19965;-80
2022/03/13 07:44:28;;;;;;;;;;;10.50;99.90;;;;;;5074280;28;19912;-80
2022/03/13 07:46:53;;;;;;;;;;;10.50;99.90;;;;;;5075437;28;19959;-80
2022/03/13 07:49:19;;;;;;;;;;;10.50;99.90;;;;;;5072706;28;19948;-80
2022/03/13 07:51:44;;;;;;;;;;;10.50;99.90;;;;;;5055713;28;19909;-80
2022/03/13 07:54:11;;;;;;;;;;;10.60;99.90;;;;;;5099281;28;19913;-80
2022/03/13 07:56:37;;;;;;;;;;;10.60;99.90;;;;;;5078055;28;19912;-80
2022/03/13 07:59:03;;;;;;;;;;;10.50;99.90;;;;;;5095652;28;19915;-81
2022/03/13 08:01:28;;;;;;;;;;;10.70;99.90;;;;;;5071253;28;20404;-80
2022/03/13 08:03:54;;;;;;;;;;;10.60;99.90;;;;;;5055233;28;19943;-80
2022/03/13 08:06:19;;;;;;;;;;;10.60;99.90;;;;;;5055183;28;19959;-80
2022/03/13 08:08:45;;;;;;;;;;;10.60;99.90;;;;;;5076897;28;20288;-79
2022/03/13 08:11:10;;;;;;;;;;;10.70;99.90;;;;;;5090937;28;20381;-80
2022/03/13 08:13:36;;;;;;;;;;;10.70;99.90;;;;;;5095331;28;19908;-80
2022/03/13 08:16:01;;;;;;;;;;;10.70;99.90;;;;;;5095255;28;20287;-80
2022/03/13 08:18:29;;;;;;;;;;;10.70;99.90;;;;;;5095245;28;20341;-79
2022/03/13 08:20:55;;;;;;;;;;;10.80;99.90;;;;;;5095085;28;20275;-79
2022/03/13 08:23:22;;;;;;;;;;;10.80;99.90;;;;;;5095318;28;19916;-77
2022/03/13 08:25:47;;;;;;;;;;;10.80;99.90;;;;;;5094629;28;19919;-77
2022/03/13 08:28:13;;;;;;;;;;;10.90;99.90;;;;;;5074726;28;20288;-76
2022/03/13 08:30:38;;;;;;;;;;;10.90;99.90;;;;;;5074727;28;19962;-76
2022/03/13 08:33:05;;;;;;;;;;;10.80;99.90;;;;;;5073460;28;20292;-78
2022/03/13 08:35:30;;;;;;;;;;;10.80;99.90;;;;;;5086994;28;19974;-79
2022/03/13 08:37:56;;;;;;;;;;;10.90;99.90;;;;;;5094818;28;19908;-77
2022/03/13 08:40:25;;;;;;;;;;;10.80;99.90;;;;;;5094593;28;19912;-80
2022/03/13 08:42:51;;;;;;;;;;;10.90;99.90;;;;;;5094788;28;19944;-80
2022/03/13 08:45:16;;;;;;;;;;;10.80;99.90;;;;;;5094476;28;19916;-79
2022/03/13 08:47:42;;;;;;;;;;;10.90;99.90;;;;;;5094770;28;19909;-79
2022/03/13 08:50:08;;;;;;;;;;;10.90;99.90;;;;;;5075979;28;19981;-77
2022/03/13 08:52:35;;;;;;;;;;;10.80;99.90;;;;;;5094615;28;19943;-76
2022/03/13 08:55:01;;;;;;;;;;;10.80;99.90;;;;;;5076444;28;19965;-76
2022/03/13 08:57:27;;;;;;;;;;;10.70;99.90;;;;;;5072956;28;19917;-79
2022/03/13 08:59:52;;;;;;;;;;;10.70;99.90;;;;;;5062974;28;19916;-78
2022/03/13 09:02:19;;;;;;;;;;;10.50;99.90;;;;;;5054287;28;19970;-79
2022/03/13 09:04:44;;;;;;;;;;;10.60;99.90;;;;;;5054037;28;19914;-79
2022/03/13 09:07:10;;;;;;;;;;;10.50;99.90;;;;;;5054200;28;19967;-78
2022/03/13 09:09:35;;;;;;;;;;;10.20;99.90;;;;;;5053558;28;20257;-78
2022/03/13 09:12:02;;;;;;;;;;;10.00;99.90;;;;;;5074641;28;20376;-78
2022/03/13 09:14:28;;;;;;;;;;;9.70;99.90;;;;;;5054064;28;19935;-78
2022/03/13 09:16:54;;;;;;;;;;;9.60;99.90;;;;;;5061863;28;19912;-78
2022/03/13 09:19:20;;;;;;;;;;;9.50;99.90;;;;;;5058061;28;19909;-79
2022/03/13 09:21:46;;;;;;;;;;;9.40;99.90;;;;;;5062161;28;19909;-77
2022/03/13 09:24:12;;;;;;;;;;;9.50;99.90;;;;;;5060397;28;19924;-78
2022/03/13 09:26:40;;;;;;;;;;;9.40;99.90;;;;;;5070603;28;19958;-77
2022/03/13 09:29:07;;;;;;;;;;;9.40;99.90;;;;;;5073242;28;19963;-79
2022/03/13 09:31:33;;;;;;;;;;;9.20;99.90;;;;;;5073822;28;19912;-78
2022/03/13 09:33:58;;;;;;;;;;;9.30;99.90;;;;;;5070956;28;19985;-80
2022/03/13 09:36:25;;;;;;;;;;;9.30;99.90;;;;;;5073599;28;19912;-79
2022/03/13 09:38:51;;;;;;;;;;;9.30;99.90;;;;;;5073420;28;19955;-78
2022/03/13 09:41:16;;;;;;;;;;;9.30;99.90;;;;;;5073093;28;19909;-77
2022/03/13 09:43:42;;;;;;;;;;;9.20;99.90;;;;;;5089932;28;19912;-77
2022/03/13 09:46:07;;;;;;;;;;;9.20;99.90;;;;;;5082813;28;19908;-78
2022/03/13 09:48:35;;;;;;;;;;;9.20;99.90;;;;;;5070483;28;19912;-77
2022/03/13 09:51:04;;;;;;;;;;;9.20;99.90;;;;;;5065030;28;19916;-76
2022/03/13 09:53:39;;;;;;;;;;;9.20;99.90;;;;;;5071358;28;19913;-77
2022/03/13 09:56:05;;;;;;;;;;;9.40;99.90;;;;;;5064683;28;20364;-77
2022/03/13 09:58:31;;;;;;;;;;;9.30;99.90;;;;;;5065756;28;19913;-77
2022/03/13 10:00:57;;;;;;;;;;;9.30;99.90;;;;;;5063533;28;20011;-76
2022/03/13 10:03:22;;;;;;;;;;;9.30;99.90;;;;;;5066407;28;20529;-76
2022/03/13 10:05:49;;;;;;;;;;;9.30;99.90;;;;;;5069369;28;19916;-77
2022/03/13 10:08:15;;;;;;;;;;;9.40;99.90;;;;;;5055192;28;19992;-77
2022/03/13 10:10:50;;;;;;;;;;;9.50;99.90;;;;;;5061982;28;19919;-76
2022/03/13 10:13:17;;;;;;;;;;;9.40;99.90;;;;;;5054551;28;20380;-77
2022/03/13 10:15:47;;;;;;;;;;;9.30;99.90;;;;;;5062434;28;19928;-77
2022/03/13 10:18:12;;;;;;;;;;;9.40;99.90;;;;;;5094848;28;20396;-77
2022/03/13 10:20:39;;;;;;;;;;;9.40;99.90;;;;;;5097672;28;19912;-76
2022/03/13 10:23:09;;;;;;;;;;;9.40;99.90;;;;;;5055567;28;19991;-76
2022/03/13 10:25:36;;;;;;;;;;;9.50;99.90;;;;;;5103369;28;19916;-76
2022/03/13 10:28:16;;;;;;;;;;;9.30;99.90;;;;;;5063646;28;19909;-76
2022/03/13 10:30:42;;;;;;;;;;;9.30;99.90;;;;;;5060689;28;19912;-76
2022/03/13 10:33:08;;;;;;;;;;;9.20;99.90;;;;;;5063704;22;19944;-80
2022/03/13 10:35:37;;;;;;;;;;;9.20;99.90;;;;;;5004294;28;19952;-83
2022/03/13 10:38:12;;;;;;;;;;;9.10;99.90;;;;;;5006833;28;20299;-82
2022/03/13 10:40:39;;;;;;;;;;;9.10;99.90;;;;;;5006739;28;19914;-83
2022/03/13 10:43:06;;;;;;;;;;;9.10;99.90;;;;;;5009234;28;19909;-82
2022/03/13 10:45:39;;;;;;;;;;;9.00;99.90;;;;;;5002776;28;20000;-80
2022/03/13 10:48:23;;;;;;;;;;;9.00;99.90;;;;;;5008022;28;19909;-82
2022/03/13 10:50:51;;;;;;;;;;;9.10;99.90;;;;;;5002803;28;20274;-81
2022/03/13 10:53:18;;;;;;;;;;;9.00;99.90;;;;;;5010516;28;21591;-80
2022/03/13 10:55:44;;;;;;;;;;;9.00;99.90;;;;;;5009405;28;19910;-83
2022/03/13 10:58:10;;;;;;;;;;;9.20;99.90;;;;;;5003217;28;19909;-81
2022/03/13 11:00:36;;;;;;;;;;;9.20;99.90;;;;;;5008653;28;19910;-82
2022/03/13 11:03:10;;;;;;;;;;;9.30;99.90;;;;;;5011845;28;20381;-83
2022/03/13 11:05:36;;;;;;;;;;;9.30;99.90;;;;;;5008802;28;19934;-82
2022/03/13 11:08:03;;;;;;;;;;;9.50;99.90;;;;;;5001334;28;19918;-83
2022/03/13 11:10:29;;;;;;;;;;;9.50;99.90;;;;;;5007572;28;19910;-83
2022/03/13 11:12:57;;;;;;;;;;;9.50;99.90;;;;;;5008904;28;19921;-81
2022/03/13 11:15:27;;;;;;;;;;;9.40;99.90;;;;;;5003525;28;19913;-83
2022/03/13 11:17:54;;;;;;;;;;;9.50;99.90;;;;;;5004684;28;19921;-81
2022/03/13 11:20:20;;;;;;;;;;;9.50;99.90;;;;;;5013080;28;19913;-83
2022/03/13 11:22:46;;;;;;;;;;;9.40;99.90;;;;;;4995992;28;19996;-83
2022/03/13 11:25:12;;;;;;;;;;;9.30;99.90;;;;;;5005936;28;19968;-84
2022/03/13 11:27:40;;;;;;;;;;;9.20;99.90;;;;;;5008827;28;19972;-83
2022/03/13 11:30:06;;;;;;;;;;;9.20;99.90;;;;;;5008092;28;19996;-82
2022/03/13 11:32:32;;;;;;;;;;;9.30;99.90;;;;;;5000930;28;19916;-82
2022/03/13 11:35:18;;;;;;;;;;;9.30;99.90;;;;;;5025892;28;19914;-83
2022/03/13 11:37:50;;;;;;;;;;;9.30;99.90;;;;;;5032209;28;19975;-84
2022/03/13 11:40:28;;;;;;;;;;;9.40;99.90;;;;;;5022753;28;19967;-83
2022/03/13 11:43:04;;;;;;;;;;;9.50;99.90;;;;;;5026098;28;20003;-83
2022/03/13 11:45:31;;;;;;;;;;;9.40;99.90;;;;;;5032512;28;19920;-84
2022/03/13 11:47:57;;;;;;;;;;;9.30;99.90;;;;;;5021920;28;19913;-85
2022/03/13 11:50:42;;;;;;;;;;;9.40;99.90;;;;;;5017471;28;19920;-85
2022/03/13 11:53:19;;;;;;;;;;;9.30;99.90;;;;;;5021472;28;20324;-84
2022/03/13 11:55:57;;;;;;;;;;;9.20;99.90;;;;;;5024954;28;19913;-85
2022/03/13 11:58:48;;;;;;;;;;;9.30;99.90;;;;;;5030672;28;19948;-84
2022/03/13 12:01:18;;;;;;;;;;;9.20;99.90;;;;;;5019735;28;20008;-83
2022/03/13 12:04:14;;;;;;;;;;;9.20;99.90;;;;;;5024491;28;19924;-83
2022/03/13 12:06:44;;;;;;;;;;;9.10;99.90;;;;;;5009404;28;19944;-83
2022/03/13 12:09:13;;;;;;;;;;;9.00;99.90;;;;;;5023264;28;19921;-85
2022/03/13 12:11:40;;;;;;;;;;;9.10;99.90;;;;;;5016318;28;19995;-86
2022/03/13 12:14:11;;;;;;;;;;;9.10;99.90;;;;;;5015351;28;20391;-84
2022/03/13 12:16:37;;;;;;;;;;;9.20;99.90;;;;;;5031250;28;19913;-83
2022/03/13 12:19:03;;;;;;;;;;;9.30;99.90;;;;;;5034411;28;19917;-82
2022/03/13 12:21:29;;;;;;;;;;;9.30;99.90;;;;;;5034545;28;19909;-82
2022/03/13 12:23:58;;;;;;;;;;;9.30;99.90;;;;;;5034207;28;20434;-82
2022/03/13 12:26:34;;;;;;;;;;;9.30;99.90;;;;;;5041369;28;19921;-82
2022/03/13 12:29:00;;;;;;;;;;;9.30;99.90;;;;;;5020573;28;19920;-82
2022/03/13 12:31:26;;;;;;;;;;;9.10;99.90;;;;;;5030270;28;20339;-83
2022/03/13 12:33:53;;;;;;;;;;;9.10;99.90;;;;;;5028835;28;19928;-83
2022/03/13 12:36:19;;;;;;;;;;;9.10;99.90;;;;;;5025476;28;20376;-83
2022/03/13 12:38:49;;;;;;;;;;;9.10;99.90;;;;;;5028927;28;19909;-82
2022/03/13 12:41:14;;;;;;;;;;;9.10;99.90;;;;;;5015975;28;20387;-83
2022/03/13 12:43:53;;;;;;;;;;;9.20;99.90;;;;;;5032007;28;19913;-84
2022/03/13 12:46:21;;;;;;;;;;;9.00;99.90;;;;;;5018347;28;19945;-83
2022/03/13 12:48:50;;;;;;;;;;;9.10;99.90;;;;;;5019481;28;19916;-83
2022/03/13 12:51:41;;;;;;;;;;;9.00;99.90;;;;;;5025837;28;20323;-83
2022/03/13 12:54:19;;;;;;;;;;;8.90;99.90;;;;;;5020639;28;19913;-83
2022/03/13 12:56:55;;;;;;;;;;;8.80;99.90;;;;;;5031176;28;19915;-83
2022/03/13 12:59:21;;;;;;;;;;;8.90;99.90;;;;;;5025812;28;19909;-83
2022/03/13 13:02:00;;;;;;;;;;;8.90;99.90;;;;;;5029437;28;19913;-83
2022/03/13 13:04:25;;;;;;;;;;;8.80;99.90;;;;;;5020743;28;19929;-83
2022/03/13 13:06:51;;;;;;;;;;;8.80;99.90;;;;;;5021946;28;19910;-83
2022/03/13 13:09:27;;;;;;;;;;;8.70;99.90;;;;;;5014448;28;19913;-83
2022/03/13 13:11:52;;;;;;;;;;;8.80;99.90;;;;;;5028751;28;19909;-83
2022/03/13 13:14:22;;;;;;;;;;;8.70;99.90;;;;;;5033905;28;19931;-83
2022/03/13 13:16:47;;;;;;;;;;;8.80;99.90;;;;;;5034051;28;20019;-83
2022/03/13 13:19:13;;;;;;;;;;;8.80;99.90;;;;;;5017913;28;19940;-84
2022/03/13 13:21:39;;;;;;;;;;;9.00;99.90;;;;;;5032367;28;19910;-83
2022/03/13 13:24:21;;;;;;;;;;;9.00;99.90;;;;;;5033072;28;19963;-83
2022/03/13 13:26:46;;;;;;;;;;;9.00;99.90;;;;;;5032475;28;19940;-83
2022/03/13 13:29:12;;;;;;;;;;;9.20;99.90;;;;;;5023914;28;19953;-83
2022/03/13 13:31:38;;;;;;;;;;;9.10;99.90;;;;;;5013521;28;19916;-83
2022/03/13 13:34:13;;;;;;;;;;;9.20;99.90;;;;;;5013259;28;19922;-83
2022/03/13 13:36:40;;;;;;;;;;;9.20;99.90;;;;;;5013780;28;19909;-83
2022/03/13 13:39:06;;;;;;;;;;;9.30;99.90;;;;;;5014196;28;20000;-83
2022/03/13 13:41:34;;;;;;;;;;;9.30;99.90;;;;;;5031103;28;20396;-83
2022/03/13 13:44:00;;;;;;;;;;;9.20;99.90;;;;;;5032334;28;19920;-83
2022/03/13 13:46:32;;;;;;;;;;;9.50;99.90;;;;;;5033427;28;20384;-83
2022/03/13 13:48:57;;;;;;;;;;;9.60;99.90;;;;;;5033407;28;19986;-83
2022/03/13 13:51:29;;;;;;;;;;;9.80;99.90;;;;;;5033256;28;19983;-83
2022/03/13 13:53:57;;;;;;;;;;;10.00;99.90;;;;;;5033501;28;19909;-83
2022/03/13 13:56:30;;;;;;;;;;;9.90;99.90;;;;;;5014104;28;19920;-84
2022/03/13 13:58:58;;;;;;;;;;;10.00;99.90;;;;;;5015001;28;20270;-83
2022/03/13 14:01:23;;;;;;;;;;;10.00;99.90;;;;;;5033320;28;20372;-84
2022/03/13 14:03:49;;;;;;;;;;;9.90;99.90;;;;;;5032612;28;19920;-83
2022/03/13 14:06:18;;;;;;;;;;;9.90;99.90;;;;;;5033099;28;19910;-83
2022/03/13 14:08:44;;;;;;;;;;;9.90;99.90;;;;;;5033088;28;19959;-83
2022/03/13 14:11:10;;;;;;;;;;;9.80;99.90;;;;;;5021725;28;20371;-85
2022/03/13 14:13:35;;;;;;;;;;;9.90;99.90;;;;;;5032924;28;19916;-84
2022/03/13 14:16:01;;;;;;;;;;;9.80;99.90;;;;;;5031568;28;19909;-84
2022/03/13 14:18:26;;;;;;;;;;;10.00;99.90;;;;;;5032766;28;19909;-84
2022/03/13 14:20:52;;;;;;;;;;;10.00;99.90;;;;;;5020009;28;19956;-84
2022/03/13 14:23:17;;;;;;;;;;;9.90;99.90;;;;;;5020701;28;19979;-84
2022/03/13 14:25:43;;;;;;;;;;;9.80;99.90;;;;;;5026954;28;19914;-84